sensor_id;sensor_type;location;lat;lon;timestamp;P1;durP1;ratioP1;P2;durP2;ratioP2
8480;SDS011;4277;51.354;6.740;2023-04-06T00:01:32;8.80;;;6.43;;
8480;SDS011;4277;51.354;6.740;2023-04-06T00:03:58;8.43;;;5.90;;
8480;SDS011;4277;51.354;6.740;2023-04-06T00:06:24;8.93;;;6.40;;
8480;SDS011;4277;51.354;6.740;2023-04-06T00:08:50;7.57;;;5.03;;
8480;SDS011;4277;51.354;6.740;2023-04-06T00:11:15;8.03;;;5.53;;
8480;SDS011;4277;51.354;6.740;2023-04-06T00:13:42;7.90;;;6.10;;
8480;SDS011;4277;51.354;6.740;2023-04-06T00:16:08;9.13;;;5.87;;
8480;SDS011;4277;51.354;6.740;2023-04-06T00:18:33;11.63;;;6.47;;
8480;SDS011;4277;51.354;6.740;2023-04-06T00:20:59;7.67;;;6.10;;
8480;SDS011;4277;51.354;6.740;2023-04-06T00:23:25;7.00;;;5.80;;
8480;SDS011;4277;51.354;6.740;2023-04-06T00:25:51;8.60;;;6.20;;
8480;SDS011;4277;51.354;6.740;2023-04-06T00:28:17;8.10;;;6.13;;
8480;SDS011;4277;51.354;6.740;2023-04-06T00:30:49;7.73;;;6.13;;
8480;SDS011;4277;51.354;6.740;2023-04-06T00:33:17;16.53;;;6.90;;
8480;SDS011;4277;51.354;6.740;2023-04-06T00:35:43;9.17;;;6.27;;
8480;SDS011;4277;51.354;6.740;2023-04-06T00:38:09;9.57;;;6.27;;
8480;SDS011;4277;51.354;6.740;2023-04-06T00:40:35;10.87;;;6.57;;
8480;SDS011;4277;51.354;6.740;2023-04-06T00:43:01;10.87;;;6.90;;
8480;SDS011;4277;51.354;6.740;2023-04-06T00:45:27;9.10;;;5.93;;
8480;SDS011;4277;51.354;6.740;2023-04-06T00:47:54;9.83;;;5.97;;
8480;SDS011;4277;51.354;6.740;2023-04-06T00:50:20;8.00;;;5.63;;
8480;SDS011;4277;51.354;6.740;2023-04-06T00:52:46;7.27;;;5.70;;
8480;SDS011;4277;51.354;6.740;2023-04-06T00:55:12;9.47;;;6.10;;
8480;SDS011;4277;51.354;6.740;2023-04-06T00:57:38;10.00;;;5.57;;
8480;SDS011;4277;51.354;6.740;2023-04-06T01:00:04;7.87;;;6.17;;
8480;SDS011;4277;51.354;6.740;2023-04-06T01:02:30;8.47;;;6.00;;
8480;SDS011;4277;51.354;6.740;2023-04-06T01:04:56;8.83;;;6.20;;
8480;SDS011;4277;51.354;6.740;2023-04-06T01:07:22;8.63;;;6.37;;
8480;SDS011;4277;51.354;6.740;2023-04-06T01:09:49;7.87;;;6.07;;
8480;SDS011;4277;51.354;6.740;2023-04-06T01:12:15;8.63;;;5.57;;
8480;SDS011;4277;51.354;6.740;2023-04-06T01:14:41;10.10;;;5.97;;
8480;SDS011;4277;51.354;6.740;2023-04-06T01:17:07;10.90;;;6.27;;
8480;SDS011;4277;51.354;6.740;2023-04-06T01:19:33;7.63;;;5.90;;
8480;SDS011;4277;51.354;6.740;2023-04-06T01:22:00;8.73;;;6.00;;
8480;SDS011;4277;51.354;6.740;2023-04-06T01:24:26;7.90;;;6.03;;
8480;SDS011;4277;51.354;6.740;2023-04-06T01:26:52;8.47;;;6.17;;
8480;SDS011;4277;51.354;6.740;2023-04-06T01:29:18;8.93;;;6.40;;
8480;SDS011;4277;51.354;6.740;2023-04-06T01:31:44;9.97;;;6.07;;
8480;SDS011;4277;51.354;6.740;2023-04-06T01:34:10;11.87;;;6.70;;
8480;SDS011;4277;51.354;6.740;2023-04-06T01:36:36;11.80;;;6.50;;
8480;SDS011;4277;51.354;6.740;2023-04-06T01:39:02;8.37;;;6.47;;
8480;SDS011;4277;51.354;6.740;2023-04-06T01:41:28;11.77;;;6.73;;
8480;SDS011;4277;51.354;6.740;2023-04-06T01:43:54;8.07;;;5.83;;
8480;SDS011;4277;51.354;6.740;2023-04-06T01:46:20;8.27;;;6.10;;
8480;SDS011;4277;51.354;6.740;2023-04-06T01:48:46;7.10;;;5.90;;
8480;SDS011;4277;51.354;6.740;2023-04-06T01:51:12;9.63;;;5.77;;
8480;SDS011;4277;51.354;6.740;2023-04-06T01:53:38;9.23;;;6.03;;
8480;SDS011;4277;51.354;6.740;2023-04-06T01:56:04;9.57;;;6.67;;
8480;SDS011;4277;51.354;6.740;2023-04-06T01:58:30;10.07;;;6.43;;
8480;SDS011;4277;51.354;6.740;2023-04-06T02:00:56;10.13;;;6.50;;
8480;SDS011;4277;51.354;6.740;2023-04-06T02:03:22;9.50;;;6.20;;
8480;SDS011;4277;51.354;6.740;2023-04-06T02:05:48;8.87;;;6.40;;
8480;SDS011;4277;51.354;6.740;2023-04-06T02:08:14;8.93;;;6.40;;
8480;SDS011;4277;51.354;6.740;2023-04-06T02:10:40;10.70;;;6.87;;
8480;SDS011;4277;51.354;6.740;2023-04-06T02:13:06;12.07;;;7.07;;
8480;SDS011;4277;51.354;6.740;2023-04-06T02:15:32;9.73;;;6.20;;
8480;SDS011;4277;51.354;6.740;2023-04-06T02:17:58;8.70;;;6.73;;
8480;SDS011;4277;51.354;6.740;2023-04-06T02:20:25;11.13;;;7.07;;
8480;SDS011;4277;51.354;6.740;2023-04-06T02:22:50;11.47;;;6.90;;
8480;SDS011;4277;51.354;6.740;2023-04-06T02:25:16;8.90;;;6.93;;
8480;SDS011;4277;51.354;6.740;2023-04-06T02:27:42;10.40;;;7.40;;
8480;SDS011;4277;51.354;6.740;2023-04-06T02:30:08;10.03;;;7.30;;
8480;SDS011;4277;51.354;6.740;2023-04-06T02:32:35;12.97;;;8.03;;
8480;SDS011;4277;51.354;6.740;2023-04-06T02:35:01;10.90;;;7.17;;
8480;SDS011;4277;51.354;6.740;2023-04-06T02:37:26;9.43;;;7.17;;
8480;SDS011;4277;51.354;6.740;2023-04-06T02:39:52;9.23;;;7.00;;
8480;SDS011;4277;51.354;6.740;2023-04-06T02:42:18;10.07;;;7.17;;
8480;SDS011;4277;51.354;6.740;2023-04-06T02:44:44;8.30;;;6.67;;
8480;SDS011;4277;51.354;6.740;2023-04-06T02:47:10;12.63;;;7.30;;
8480;SDS011;4277;51.354;6.740;2023-04-06T02:49:36;10.70;;;7.10;;
8480;SDS011;4277;51.354;6.740;2023-04-06T02:52:02;9.47;;;6.63;;
8480;SDS011;4277;51.354;6.740;2023-04-06T02:54:28;9.67;;;7.20;;
8480;SDS011;4277;51.354;6.740;2023-04-06T02:56:54;9.73;;;7.10;;
8480;SDS011;4277;51.354;6.740;2023-04-06T02:59:20;11.97;;;7.13;;
8480;SDS011;4277;51.354;6.740;2023-04-06T03:01:46;10.23;;;6.73;;
8480;SDS011;4277;51.354;6.740;2023-04-06T03:04:12;9.20;;;6.83;;
8480;SDS011;4277;51.354;6.740;2023-04-06T03:06:38;11.00;;;7.40;;
8480;SDS011;4277;51.354;6.740;2023-04-06T03:09:05;9.67;;;7.50;;
8480;SDS011;4277;51.354;6.740;2023-04-06T03:11:31;12.03;;;7.70;;
8480;SDS011;4277;51.354;6.740;2023-04-06T03:13:57;11.47;;;7.67;;
8480;SDS011;4277;51.354;6.740;2023-04-06T03:16:24;11.73;;;7.37;;
8480;SDS011;4277;51.354;6.740;2023-04-06T03:18:50;10.67;;;7.93;;
8480;SDS011;4277;51.354;6.740;2023-04-06T03:21:15;12.77;;;8.73;;
8480;SDS011;4277;51.354;6.740;2023-04-06T03:23:42;13.20;;;8.57;;
8480;SDS011;4277;51.354;6.740;2023-04-06T03:26:08;11.50;;;8.30;;
8480;SDS011;4277;51.354;6.740;2023-04-06T03:28:34;12.33;;;8.80;;
8480;SDS011;4277;51.354;6.740;2023-04-06T03:31:00;11.90;;;9.27;;
8480;SDS011;4277;51.354;6.740;2023-04-06T03:33:26;11.77;;;8.67;;
8480;SDS011;4277;51.354;6.740;2023-04-06T03:35:52;12.07;;;8.27;;
8480;SDS011;4277;51.354;6.740;2023-04-06T03:38:18;14.23;;;8.73;;
8480;SDS011;4277;51.354;6.740;2023-04-06T03:40:44;14.27;;;8.57;;
8480;SDS011;4277;51.354;6.740;2023-04-06T03:43:10;12.57;;;9.00;;
8480;SDS011;4277;51.354;6.740;2023-04-06T03:45:36;13.10;;;8.33;;
8480;SDS011;4277;51.354;6.740;2023-04-06T03:48:02;13.43;;;9.17;;
8480;SDS011;4277;51.354;6.740;2023-04-06T03:50:28;13.77;;;9.13;;
8480;SDS011;4277;51.354;6.740;2023-04-06T03:52:54;11.53;;;9.07;;
8480;SDS011;4277;51.354;6.740;2023-04-06T03:55:21;13.77;;;8.50;;
8480;SDS011;4277;51.354;6.740;2023-04-06T03:57:47;455.00;;;27.80;;
8480;SDS011;4277;51.354;6.740;2023-04-06T04:00:13;12.87;;;8.63;;
8480;SDS011;4277;51.354;6.740;2023-04-06T04:02:39;13.43;;;9.30;;
8480;SDS011;4277;51.354;6.740;2023-04-06T04:05:05;12.03;;;8.83;;
8480;SDS011;4277;51.354;6.740;2023-04-06T04:07:31;16.50;;;9.00;;
8480;SDS011;4277;51.354;6.740;2023-04-06T04:09:57;14.90;;;8.20;;
8480;SDS011;4277;51.354;6.740;2023-04-06T04:12:23;14.03;;;9.10;;
8480;SDS011;4277;51.354;6.740;2023-04-06T04:14:49;11.23;;;8.97;;
8480;SDS011;4277;51.354;6.740;2023-04-06T04:17:15;12.03;;;8.13;;
8480;SDS011;4277;51.354;6.740;2023-04-06T04:19:41;13.50;;;10.03;;
8480;SDS011;4277;51.354;6.740;2023-04-06T04:22:07;19.80;;;10.30;;
8480;SDS011;4277;51.354;6.740;2023-04-06T04:24:33;11.57;;;7.87;;
8480;SDS011;4277;51.354;6.740;2023-04-06T04:26:59;11.80;;;8.57;;
8480;SDS011;4277;51.354;6.740;2023-04-06T04:29:28;12.70;;;8.13;;
8480;SDS011;4277;51.354;6.740;2023-04-06T04:31:54;12.17;;;9.00;;
8480;SDS011;4277;51.354;6.740;2023-04-06T04:34:20;12.63;;;10.07;;
8480;SDS011;4277;51.354;6.740;2023-04-06T04:36:48;15.43;;;10.17;;
8480;SDS011;4277;51.354;6.740;2023-04-06T04:39:15;13.47;;;9.90;;
8480;SDS011;4277;51.354;6.740;2023-04-06T04:41:40;14.17;;;10.30;;
8480;SDS011;4277;51.354;6.740;2023-04-06T04:44:06;14.80;;;10.23;;
8480;SDS011;4277;51.354;6.740;2023-04-06T04:46:32;14.27;;;9.53;;
8480;SDS011;4277;51.354;6.740;2023-04-06T04:48:58;13.00;;;9.10;;
8480;SDS011;4277;51.354;6.740;2023-04-06T04:51:24;12.33;;;8.83;;
8480;SDS011;4277;51.354;6.740;2023-04-06T04:53:50;11.47;;;9.27;;
8480;SDS011;4277;51.354;6.740;2023-04-06T04:56:16;13.00;;;9.70;;
8480;SDS011;4277;51.354;6.740;2023-04-06T04:58:42;16.77;;;9.93;;
8480;SDS011;4277;51.354;6.740;2023-04-06T05:01:08;15.27;;;9.37;;
8480;SDS011;4277;51.354;6.740;2023-04-06T05:03:34;12.87;;;9.60;;
8480;SDS011;4277;51.354;6.740;2023-04-06T05:06:00;11.57;;;8.70;;
8480;SDS011;4277;51.354;6.740;2023-04-06T05:08:27;12.83;;;9.50;;
8480;SDS011;4277;51.354;6.740;2023-04-06T05:10:52;13.63;;;9.63;;
8480;SDS011;4277;51.354;6.740;2023-04-06T05:13:18;14.67;;;9.70;;
8480;SDS011;4277;51.354;6.740;2023-04-06T05:15:45;13.73;;;9.70;;
8480;SDS011;4277;51.354;6.740;2023-04-06T05:18:11;12.33;;;9.20;;
8480;SDS011;4277;51.354;6.740;2023-04-06T05:20:38;13.30;;;9.30;;
8480;SDS011;4277;51.354;6.740;2023-04-06T05:23:04;12.40;;;8.93;;
8480;SDS011;4277;51.354;6.740;2023-04-06T05:25:30;12.27;;;9.67;;
8480;SDS011;4277;51.354;6.740;2023-04-06T05:27:56;12.10;;;9.23;;
8480;SDS011;4277;51.354;6.740;2023-04-06T05:30:22;14.73;;;9.87;;
8480;SDS011;4277;51.354;6.740;2023-04-06T05:32:48;12.67;;;9.77;;
8480;SDS011;4277;51.354;6.740;2023-04-06T05:35:14;13.10;;;9.70;;
8480;SDS011;4277;51.354;6.740;2023-04-06T05:37:42;13.37;;;9.20;;
8480;SDS011;4277;51.354;6.740;2023-04-06T05:40:08;13.27;;;8.27;;
8480;SDS011;4277;51.354;6.740;2023-04-06T05:42:40;11.93;;;8.53;;
8480;SDS011;4277;51.354;6.740;2023-04-06T05:45:07;12.60;;;8.13;;
8480;SDS011;4277;51.354;6.740;2023-04-06T05:47:34;12.20;;;8.93;;
8480;SDS011;4277;51.354;6.740;2023-04-06T05:50:00;11.10;;;8.60;;
8480;SDS011;4277;51.354;6.740;2023-04-06T05:52:26;11.27;;;8.97;;
8480;SDS011;4277;51.354;6.740;2023-04-06T05:54:52;12.80;;;8.57;;
8480;SDS011;4277;51.354;6.740;2023-04-06T05:57:18;10.73;;;8.23;;
8480;SDS011;4277;51.354;6.740;2023-04-06T05:59:44;10.20;;;7.80;;
8480;SDS011;4277;51.354;6.740;2023-04-06T06:02:10;11.07;;;7.73;;
8480;SDS011;4277;51.354;6.740;2023-04-06T06:04:36;11.80;;;8.57;;
8480;SDS011;4277;51.354;6.740;2023-04-06T06:07:02;9.83;;;7.40;;
8480;SDS011;4277;51.354;6.740;2023-04-06T06:09:28;11.40;;;7.77;;
8480;SDS011;4277;51.354;6.740;2023-04-06T06:11:54;9.60;;;7.70;;
8480;SDS011;4277;51.354;6.740;2023-04-06T06:14:20;11.53;;;8.33;;
8480;SDS011;4277;51.354;6.740;2023-04-06T06:16:46;11.10;;;7.97;;
8480;SDS011;4277;51.354;6.740;2023-04-06T06:19:12;13.07;;;7.90;;
8480;SDS011;4277;51.354;6.740;2023-04-06T06:21:38;9.43;;;7.37;;
8480;SDS011;4277;51.354;6.740;2023-04-06T06:24:05;10.83;;;7.47;;
8480;SDS011;4277;51.354;6.740;2023-04-06T06:26:31;11.87;;;7.87;;
8480;SDS011;4277;51.354;6.740;2023-04-06T06:28:56;10.33;;;7.93;;
8480;SDS011;4277;51.354;6.740;2023-04-06T06:31:22;10.40;;;8.17;;
8480;SDS011;4277;51.354;6.740;2023-04-06T06:33:49;11.70;;;8.13;;
8480;SDS011;4277;51.354;6.740;2023-04-06T06:36:16;8.93;;;7.47;;
8480;SDS011;4277;51.354;6.740;2023-04-06T06:38:42;12.10;;;7.57;;
8480;SDS011;4277;51.354;6.740;2023-04-06T06:41:08;13.07;;;7.37;;
8480;SDS011;4277;51.354;6.740;2023-04-06T06:43:34;9.50;;;6.67;;
8480;SDS011;4277;51.354;6.740;2023-04-06T06:46:00;10.60;;;7.37;;
8480;SDS011;4277;51.354;6.740;2023-04-06T06:48:26;8.53;;;7.07;;
8480;SDS011;4277;51.354;6.740;2023-04-06T06:50:52;8.87;;;7.27;;
8480;SDS011;4277;51.354;6.740;2023-04-06T06:53:18;9.53;;;7.23;;
8480;SDS011;4277;51.354;6.740;2023-04-06T06:55:45;8.90;;;7.00;;
8480;SDS011;4277;51.354;6.740;2023-04-06T06:58:11;10.27;;;7.27;;
8480;SDS011;4277;51.354;6.740;2023-04-06T07:00:37;10.30;;;7.47;;
8480;SDS011;4277;51.354;6.740;2023-04-06T07:03:03;13.07;;;7.00;;
8480;SDS011;4277;51.354;6.740;2023-04-06T07:05:29;9.63;;;7.13;;
8480;SDS011;4277;51.354;6.740;2023-04-06T07:07:55;9.63;;;7.67;;
8480;SDS011;4277;51.354;6.740;2023-04-06T07:10:21;9.57;;;7.23;;
8480;SDS011;4277;51.354;6.740;2023-04-06T07:12:47;11.37;;;7.13;;
8480;SDS011;4277;51.354;6.740;2023-04-06T07:15:13;11.13;;;7.20;;
8480;SDS011;4277;51.354;6.740;2023-04-06T07:17:39;10.07;;;7.70;;
8480;SDS011;4277;51.354;6.740;2023-04-06T07:20:10;10.77;;;7.17;;
8480;SDS011;4277;51.354;6.740;2023-04-06T07:22:36;8.87;;;7.13;;
8480;SDS011;4277;51.354;6.740;2023-04-06T07:25:02;10.93;;;7.40;;
8480;SDS011;4277;51.354;6.740;2023-04-06T07:27:28;9.17;;;6.90;;
8480;SDS011;4277;51.354;6.740;2023-04-06T07:29:54;12.13;;;7.20;;
8480;SDS011;4277;51.354;6.740;2023-04-06T07:32:20;9.60;;;7.50;;
8480;SDS011;4277;51.354;6.740;2023-04-06T07:34:46;9.73;;;7.43;;
8480;SDS011;4277;51.354;6.740;2023-04-06T07:37:12;10.00;;;7.30;;
8480;SDS011;4277;51.354;6.740;2023-04-06T07:39:38;12.37;;;7.40;;
8480;SDS011;4277;51.354;6.740;2023-04-06T07:42:05;9.33;;;7.10;;
8480;SDS011;4277;51.354;6.740;2023-04-06T07:44:31;9.17;;;7.30;;
8480;SDS011;4277;51.354;6.740;2023-04-06T07:46:57;10.93;;;7.20;;
8480;SDS011;4277;51.354;6.740;2023-04-06T07:49:23;10.00;;;7.00;;
8480;SDS011;4277;51.354;6.740;2023-04-06T07:51:49;9.73;;;7.40;;
8480;SDS011;4277;51.354;6.740;2023-04-06T07:54:15;9.77;;;7.17;;
8480;SDS011;4277;51.354;6.740;2023-04-06T07:56:41;10.70;;;7.33;;
8480;SDS011;4277;51.354;6.740;2023-04-06T07:59:07;12.27;;;7.10;;
8480;SDS011;4277;51.354;6.740;2023-04-06T08:01:33;10.67;;;7.53;;
8480;SDS011;4277;51.354;6.740;2023-04-06T08:03:59;10.10;;;7.33;;
8480;SDS011;4277;51.354;6.740;2023-04-06T08:06:27;13.33;;;7.67;;
8480;SDS011;4277;51.354;6.740;2023-04-06T08:08:53;8.70;;;7.03;;
8480;SDS011;4277;51.354;6.740;2023-04-06T08:11:19;9.40;;;7.30;;
8480;SDS011;4277;51.354;6.740;2023-04-06T08:13:45;11.47;;;7.93;;
8480;SDS011;4277;51.354;6.740;2023-04-06T08:16:11;10.80;;;7.70;;
8480;SDS011;4277;51.354;6.740;2023-04-06T08:18:37;10.53;;;7.67;;
8480;SDS011;4277;51.354;6.740;2023-04-06T08:21:03;9.40;;;7.03;;
8480;SDS011;4277;51.354;6.740;2023-04-06T08:23:29;10.17;;;7.87;;
8480;SDS011;4277;51.354;6.740;2023-04-06T08:25:55;9.13;;;7.20;;
8480;SDS011;4277;51.354;6.740;2023-04-06T08:28:21;9.03;;;6.87;;
8480;SDS011;4277;51.354;6.740;2023-04-06T08:30:47;9.53;;;7.50;;
8480;SDS011;4277;51.354;6.740;2023-04-06T08:33:13;12.73;;;7.83;;
8480;SDS011;4277;51.354;6.740;2023-04-06T08:35:39;11.60;;;7.90;;
8480;SDS011;4277;51.354;6.740;2023-04-06T08:38:05;11.83;;;8.17;;
8480;SDS011;4277;51.354;6.740;2023-04-06T08:40:36;10.70;;;8.10;;
8480;SDS011;4277;51.354;6.740;2023-04-06T08:43:02;11.17;;;7.50;;
8480;SDS011;4277;51.354;6.740;2023-04-06T08:45:33;11.90;;;7.47;;
8480;SDS011;4277;51.354;6.740;2023-04-06T08:47:59;10.77;;;7.83;;
8480;SDS011;4277;51.354;6.740;2023-04-06T08:50:27;12.93;;;7.80;;
8480;SDS011;4277;51.354;6.740;2023-04-06T08:52:53;11.83;;;8.30;;
8480;SDS011;4277;51.354;6.740;2023-04-06T08:55:19;13.07;;;8.93;;
8480;SDS011;4277;51.354;6.740;2023-04-06T08:57:45;12.93;;;8.70;;
8480;SDS011;4277;51.354;6.740;2023-04-06T09:00:12;12.77;;;8.93;;
8480;SDS011;4277;51.354;6.740;2023-04-06T09:02:39;11.27;;;8.07;;
8480;SDS011;4277;51.354;6.740;2023-04-06T09:05:06;12.27;;;8.97;;
8480;SDS011;4277;51.354;6.740;2023-04-06T09:07:33;10.63;;;8.60;;
8480;SDS011;4277;51.354;6.740;2023-04-06T09:09:59;14.50;;;9.03;;
8480;SDS011;4277;51.354;6.740;2023-04-06T09:12:25;10.33;;;8.37;;
8480;SDS011;4277;51.354;6.740;2023-04-06T09:14:52;13.80;;;8.03;;
8480;SDS011;4277;51.354;6.740;2023-04-06T09:17:26;15.50;;;9.10;;
8480;SDS011;4277;51.354;6.740;2023-04-06T09:19:53;12.30;;;8.43;;
8480;SDS011;4277;51.354;6.740;2023-04-06T09:22:19;13.00;;;9.30;;
8480;SDS011;4277;51.354;6.740;2023-04-06T09:24:47;12.50;;;9.60;;
8480;SDS011;4277;51.354;6.740;2023-04-06T09:27:13;12.37;;;9.43;;
8480;SDS011;4277;51.354;6.740;2023-04-06T09:29:40;14.60;;;9.70;;
8480;SDS011;4277;51.354;6.740;2023-04-06T09:32:07;13.20;;;9.37;;
8480;SDS011;4277;51.354;6.740;2023-04-06T09:34:35;13.90;;;9.93;;
8480;SDS011;4277;51.354;6.740;2023-04-06T09:37:11;12.13;;;9.03;;
8480;SDS011;4277;51.354;6.740;2023-04-06T09:39:37;13.30;;;10.13;;
8480;SDS011;4277;51.354;6.740;2023-04-06T09:42:03;13.27;;;9.90;;
8480;SDS011;4277;51.354;6.740;2023-04-06T09:44:29;12.63;;;9.87;;
8480;SDS011;4277;51.354;6.740;2023-04-06T09:46:55;15.67;;;9.97;;
8480;SDS011;4277;51.354;6.740;2023-04-06T09:49:21;15.00;;;9.73;;
8480;SDS011;4277;51.354;6.740;2023-04-06T09:51:55;15.73;;;9.90;;
8480;SDS011;4277;51.354;6.740;2023-04-06T09:54:22;14.67;;;10.00;;
8480;SDS011;4277;51.354;6.740;2023-04-06T09:56:56;17.53;;;9.80;;
8480;SDS011;4277;51.354;6.740;2023-04-06T10:02:08;13.50;;;10.07;;
8480;SDS011;4277;51.354;6.740;2023-04-06T10:04:41;13.43;;;9.97;;
8480;SDS011;4277;51.354;6.740;2023-04-06T10:07:09;16.77;;;9.90;;
8480;SDS011;4277;51.354;6.740;2023-04-06T10:09:40;16.10;;;10.10;;
8480;SDS011;4277;51.354;6.740;2023-04-06T10:12:07;16.40;;;10.43;;
8480;SDS011;4277;51.354;6.740;2023-04-06T10:14:34;14.13;;;10.33;;
8480;SDS011;4277;51.354;6.740;2023-04-06T10:17:02;13.03;;;9.90;;
8480;SDS011;4277;51.354;6.740;2023-04-06T10:19:30;14.43;;;10.07;;
8480;SDS011;4277;51.354;6.740;2023-04-06T10:21:58;14.33;;;9.57;;
8480;SDS011;4277;51.354;6.740;2023-04-06T10:24:24;15.37;;;9.83;;
8480;SDS011;4277;51.354;6.740;2023-04-06T10:27:26;13.40;;;9.87;;
8480;SDS011;4277;51.354;6.740;2023-04-06T10:29:46;17.40;;;10.47;;
8480;SDS011;4277;51.354;6.740;2023-04-06T10:32:13;16.40;;;10.17;;
8480;SDS011;4277;51.354;6.740;2023-04-06T10:34:39;16.27;;;10.23;;
8480;SDS011;4277;51.354;6.740;2023-04-06T10:37:15;16.90;;;10.70;;
8480;SDS011;4277;51.354;6.740;2023-04-06T10:39:49;16.07;;;10.07;;
8480;SDS011;4277;51.354;6.740;2023-04-06T10:42:23;13.70;;;10.33;;
8480;SDS011;4277;51.354;6.740;2023-04-06T10:44:49;18.00;;;11.13;;
8480;SDS011;4277;51.354;6.740;2023-04-06T10:47:16;15.77;;;10.97;;
8480;SDS011;4277;51.354;6.740;2023-04-06T10:49:43;17.20;;;11.50;;
8480;SDS011;4277;51.354;6.740;2023-04-06T10:52:09;16.87;;;11.20;;
8480;SDS011;4277;51.354;6.740;2023-04-06T10:54:36;15.77;;;11.70;;
8480;SDS011;4277;51.354;6.740;2023-04-06T10:57:05;14.57;;;10.67;;
8480;SDS011;4277;51.354;6.740;2023-04-06T10:59:31;14.67;;;11.03;;
8480;SDS011;4277;51.354;6.740;2023-04-06T11:01:57;15.70;;;11.60;;
8480;SDS011;4277;51.354;6.740;2023-04-06T11:04:24;17.27;;;11.83;;
8480;SDS011;4277;51.354;6.740;2023-04-06T11:06:50;17.90;;;12.23;;
8480;SDS011;4277;51.354;6.740;2023-04-06T11:09:23;18.87;;;12.03;;
8480;SDS011;4277;51.354;6.740;2023-04-06T11:11:49;16.30;;;11.47;;
8480;SDS011;4277;51.354;6.740;2023-04-06T11:14:15;17.80;;;11.30;;
8480;SDS011;4277;51.354;6.740;2023-04-06T11:16:41;17.03;;;11.33;;
8480;SDS011;4277;51.354;6.740;2023-04-06T11:19:07;15.80;;;10.70;;
8480;SDS011;4277;51.354;6.740;2023-04-06T11:24:13;13.80;;;10.43;;
8480;SDS011;4277;51.354;6.740;2023-04-06T11:26:43;17.93;;;10.93;;
8480;SDS011;4277;51.354;6.740;2023-04-06T11:29:14;15.73;;;11.10;;
8480;SDS011;4277;51.354;6.740;2023-04-06T11:31:41;15.93;;;10.80;;
8480;SDS011;4277;51.354;6.740;2023-04-06T11:34:17;14.33;;;10.60;;
8480;SDS011;4277;51.354;6.740;2023-04-06T11:36:44;15.93;;;10.97;;
8480;SDS011;4277;51.354;6.740;2023-04-06T11:39:11;15.53;;;11.00;;
8480;SDS011;4277;51.354;6.740;2023-04-06T11:41:37;19.77;;;11.90;;
8480;SDS011;4277;51.354;6.740;2023-04-06T11:44:03;15.67;;;11.43;;
8480;SDS011;4277;51.354;6.740;2023-04-06T11:46:29;17.53;;;11.53;;
8480;SDS011;4277;51.354;6.740;2023-04-06T11:48:59;17.97;;;10.70;;
8480;SDS011;4277;51.354;6.740;2023-04-06T11:51:25;15.67;;;10.67;;
8480;SDS011;4277;51.354;6.740;2023-04-06T11:53:51;16.90;;;10.87;;
8480;SDS011;4277;51.354;6.740;2023-04-06T11:56:24;18.53;;;10.67;;
8480;SDS011;4277;51.354;6.740;2023-04-06T11:58:50;17.17;;;10.80;;
8480;SDS011;4277;51.354;6.740;2023-04-06T12:01:16;15.83;;;10.80;;
8480;SDS011;4277;51.354;6.740;2023-04-06T12:03:42;18.07;;;10.67;;
8480;SDS011;4277;51.354;6.740;2023-04-06T12:06:08;13.77;;;10.63;;
8480;SDS011;4277;51.354;6.740;2023-04-06T12:08:33;19.43;;;11.03;;
8480;SDS011;4277;51.354;6.740;2023-04-06T12:10:59;15.87;;;10.83;;
8480;SDS011;4277;51.354;6.740;2023-04-06T12:13:25;15.97;;;11.13;;
8480;SDS011;4277;51.354;6.740;2023-04-06T12:15:52;16.17;;;11.37;;
8480;SDS011;4277;51.354;6.740;2023-04-06T12:18:18;19.87;;;11.17;;
8480;SDS011;4277;51.354;6.740;2023-04-06T12:20:44;15.03;;;11.43;;
8480;SDS011;4277;51.354;6.740;2023-04-06T12:23:10;15.30;;;11.13;;
8480;SDS011;4277;51.354;6.740;2023-04-06T12:25:36;18.20;;;10.73;;
8480;SDS011;4277;51.354;6.740;2023-04-06T12:28:04;15.33;;;11.47;;
8480;SDS011;4277;51.354;6.740;2023-04-06T12:30:30;14.60;;;10.97;;
8480;SDS011;4277;51.354;6.740;2023-04-06T12:32:57;15.57;;;11.07;;
8480;SDS011;4277;51.354;6.740;2023-04-06T12:35:23;18.57;;;11.13;;
8480;SDS011;4277;51.354;6.740;2023-04-06T12:37:49;14.43;;;11.13;;
8480;SDS011;4277;51.354;6.740;2023-04-06T12:40:15;15.07;;;11.43;;
8480;SDS011;4277;51.354;6.740;2023-04-06T12:42:41;16.33;;;11.10;;
8480;SDS011;4277;51.354;6.740;2023-04-06T12:45:07;11.57;;;9.90;;
8480;SDS011;4277;51.354;6.740;2023-04-06T12:47:33;13.80;;;9.23;;
8480;SDS011;4277;51.354;6.740;2023-04-06T12:50:01;11.73;;;8.50;;
8480;SDS011;4277;51.354;6.740;2023-04-06T12:52:27;14.40;;;8.60;;
8480;SDS011;4277;51.354;6.740;2023-04-06T12:54:55;11.20;;;8.03;;
8480;SDS011;4277;51.354;6.740;2023-04-06T12:57:21;11.43;;;7.60;;
8480;SDS011;4277;51.354;6.740;2023-04-06T12:59:47;11.70;;;7.70;;
8480;SDS011;4277;51.354;6.740;2023-04-06T13:02:13;8.87;;;7.23;;
8480;SDS011;4277;51.354;6.740;2023-04-06T13:04:39;8.97;;;7.00;;
8480;SDS011;4277;51.354;6.740;2023-04-06T13:07:06;7.10;;;6.37;;
8480;SDS011;4277;51.354;6.740;2023-04-06T13:09:32;5.87;;;5.17;;
8480;SDS011;4277;51.354;6.740;2023-04-06T13:11:58;12.27;;;5.30;;
8480;SDS011;4277;51.354;6.740;2023-04-06T13:14:24;6.77;;;5.43;;
8480;SDS011;4277;51.354;6.740;2023-04-06T13:16:50;7.67;;;5.83;;
8480;SDS011;4277;51.354;6.740;2023-04-06T13:19:16;8.07;;;6.40;;
8480;SDS011;4277;51.354;6.740;2023-04-06T13:21:43;7.30;;;6.10;;
8480;SDS011;4277;51.354;6.740;2023-04-06T13:24:09;7.23;;;6.20;;
8480;SDS011;4277;51.354;6.740;2023-04-06T13:26:35;10.60;;;6.17;;
8480;SDS011;4277;51.354;6.740;2023-04-06T13:29:01;7.87;;;6.23;;
8480;SDS011;4277;51.354;6.740;2023-04-06T13:31:27;9.37;;;6.07;;
8480;SDS011;4277;51.354;6.740;2023-04-06T13:33:53;7.60;;;5.83;;
8480;SDS011;4277;51.354;6.740;2023-04-06T13:36:19;8.03;;;6.27;;
8480;SDS011;4277;51.354;6.740;2023-04-06T13:38:46;8.97;;;6.37;;
8480;SDS011;4277;51.354;6.740;2023-04-06T13:41:21;6.83;;;5.70;;
8480;SDS011;4277;51.354;6.740;2023-04-06T13:43:48;8.03;;;6.57;;
8480;SDS011;4277;51.354;6.740;2023-04-06T13:46:14;10.00;;;7.47;;
8480;SDS011;4277;51.354;6.740;2023-04-06T13:48:41;8.57;;;7.53;;
8480;SDS011;4277;51.354;6.740;2023-04-06T13:51:08;9.53;;;7.53;;
8480;SDS011;4277;51.354;6.740;2023-04-06T13:53:34;9.00;;;7.37;;
8480;SDS011;4277;51.354;6.740;2023-04-06T13:56:00;8.23;;;7.30;;
8480;SDS011;4277;51.354;6.740;2023-04-06T13:58:26;7.97;;;6.50;;
8480;SDS011;4277;51.354;6.740;2023-04-06T14:00:52;9.03;;;6.63;;
8480;SDS011;4277;51.354;6.740;2023-04-06T14:03:18;8.50;;;7.03;;
8480;SDS011;4277;51.354;6.740;2023-04-06T14:05:45;11.20;;;7.20;;
8480;SDS011;4277;51.354;6.740;2023-04-06T14:08:11;7.63;;;6.53;;
8480;SDS011;4277;51.354;6.740;2023-04-06T14:10:37;7.77;;;6.13;;
8480;SDS011;4277;51.354;6.740;2023-04-06T14:13:05;8.50;;;6.00;;
8480;SDS011;4277;51.354;6.740;2023-04-06T14:15:31;7.00;;;6.27;;
8480;SDS011;4277;51.354;6.740;2023-04-06T14:17:57;7.77;;;6.00;;
8480;SDS011;4277;51.354;6.740;2023-04-06T14:20:22;10.50;;;6.17;;
8480;SDS011;4277;51.354;6.740;2023-04-06T14:22:48;7.10;;;6.23;;
8480;SDS011;4277;51.354;6.740;2023-04-06T14:25:17;9.27;;;6.70;;
8480;SDS011;4277;51.354;6.740;2023-04-06T14:27:43;9.43;;;7.30;;
8480;SDS011;4277;51.354;6.740;2023-04-06T14:30:09;9.47;;;7.13;;
8480;SDS011;4277;51.354;6.740;2023-04-06T14:32:35;7.60;;;6.00;;
8480;SDS011;4277;51.354;6.740;2023-04-06T14:35:02;10.27;;;6.97;;
8480;SDS011;4277;51.354;6.740;2023-04-06T14:37:28;7.67;;;6.87;;
8480;SDS011;4277;51.354;6.740;2023-04-06T14:39:55;7.70;;;6.77;;
8480;SDS011;4277;51.354;6.740;2023-04-06T14:42:21;8.87;;;7.90;;
8480;SDS011;4277;51.354;6.740;2023-04-06T14:44:47;8.27;;;7.17;;
8480;SDS011;4277;51.354;6.740;2023-04-06T14:47:13;10.33;;;8.07;;
8480;SDS011;4277;51.354;6.740;2023-04-06T14:49:45;9.90;;;7.47;;
8480;SDS011;4277;51.354;6.740;2023-04-06T14:52:11;8.97;;;7.60;;
8480;SDS011;4277;51.354;6.740;2023-04-06T14:54:36;9.90;;;7.83;;
8480;SDS011;4277;51.354;6.740;2023-04-06T14:57:02;9.37;;;8.23;;
8480;SDS011;4277;51.354;6.740;2023-04-06T14:59:28;14.60;;;8.27;;
8480;SDS011;4277;51.354;6.740;2023-04-06T15:01:54;10.33;;;8.33;;
8480;SDS011;4277;51.354;6.740;2023-04-06T15:04:20;9.40;;;7.83;;